Time;durP1;ratioP1;P1;durP2;ratioP2;P2;SDS_P1;SDS_P2;PMS_P1;PMS_P2;Temp;Humidity;BMP_temperature;BMP_pressure;BME280_temperature;BME280_humidity;BME280_pressure;Samples;Min_cycle;Max_cycle;Signal;HPM_P1;HPM_P2
2021/09/11 00:01:33;;;;;;;14.40;5.80;;;;;;;;;;5036197;28;20025;-71
2021/09/11 00:04:00;;;;;;;10.05;5.20;;;;;;;;;;5036759;28;20382;-70
2021/09/11 00:06:27;;;;;;;10.95;5.20;;;;;;;;;;5035977;28;20040;-71
2021/09/11 00:08:55;;;;;;;11.75;5.35;;;;;;;;;;5040137;28;20464;-72
2021/09/11 00:11:22;;;;;;;8.75;4.53;;;;;;;;;;5036114;28;20045;-71
2021/09/11 00:13:49;;;;;;;11.70;5.40;;;;;;;;;;5044378;28;20033;-71
2021/09/11 00:16:16;;;;;;;9.68;5.38;;;;;;;;;;5036514;28;20048;-71
2021/09/11 00:18:43;;;;;;;7.97;4.60;;;;;;;;;;5035683;28;20021;-72
2021/09/11 00:21:10;;;;;;;8.70;4.30;;;;;;;;;;5036006;28;20052;-72
2021/09/11 00:23:38;;;;;;;11.27;4.60;;;;;;;;;;5039685;28;20029;-72
2021/09/11 00:26:05;;;;;;;13.48;4.55;;;;;;;;;;5045079;28;20025;-73
2021/09/11 00:28:33;;;;;;;7.25;4.20;;;;;;;;;;5035134;28;20036;-72
2021/09/11 00:31:00;;;;;;;8.75;4.45;;;;;;;;;;5040579;28;20063;-71
2021/09/11 00:33:27;;;;;;;9.00;3.88;;;;;;;;;;5036769;28;20124;-71
2021/09/11 00:35:55;;;;;;;10.15;4.88;;;;;;;;;;5040509;28;20017;-71
2021/09/11 00:38:22;;;;;;;7.05;3.75;;;;;;;;;;5038879;28;20045;-71
2021/09/11 00:40:49;;;;;;;8.57;3.45;;;;;;;;;;5034155;28;20497;-71
2021/09/11 00:43:25;;;;;;;7.43;3.25;;;;;;;;;;5035381;28;20090;-72
2021/09/11 00:45:53;;;;;;;6.55;3.25;;;;;;;;;;5034918;28;20022;-72
2021/09/11 00:48:20;;;;;;;7.88;3.80;;;;;;;;;;5035688;28;20163;-72
2021/09/11 00:50:47;;;;;;;7.03;3.30;;;;;;;;;;5040768;28;20054;-72
2021/09/11 00:53:15;;;;;;;6.28;2.42;;;;;;;;;;5038104;28;20029;-71
2021/09/11 00:55:46;;;;;;;7.38;2.83;;;;;;;;;;5053986;28;20025;-71
2021/09/11 00:58:13;;;;;;;5.40;2.13;;;;;;;;;;5035724;28;20026;-72
2021/09/11 01:00:40;;;;;;;5.85;2.92;;;;;;;;;;5042129;28;20040;-71
2021/09/11 01:03:07;;;;;;;6.40;2.30;;;;;;;;;;5035488;28;20032;-71
2021/09/11 01:05:34;;;;;;;5.20;2.05;;;;;;;;;;5034880;28;20025;-72
2021/09/11 01:08:02;;;;;;;4.13;1.90;;;;;;;;;;5034832;28;20500;-72
2021/09/11 01:10:29;;;;;;;5.38;2.15;;;;;;;;;;5034080;28;20025;-71
2021/09/11 01:12:56;;;;;;;6.95;1.90;;;;;;;;;;5050975;28;20044;-71
2021/09/11 01:15:33;;;;;;;2.78;1.65;;;;;;;;;;5047426;28;20110;-70
2021/09/11 01:18:00;;;;;;;4.63;1.08;;;;;;;;;;5034683;28;20025;-71
2021/09/11 01:20:28;;;;;;;3.85;1.00;;;;;;;;;;5033742;28;20163;-72
2021/09/11 01:22:55;;;;;;;3.65;1.13;;;;;;;;;;5047113;28;20036;-71
2021/09/11 01:25:22;;;;;;;5.25;1.05;;;;;;;;;;5034803;28;20482;-70
2021/09/11 01:27:50;;;;;;;2.15;1.10;;;;;;;;;;5036049;28;20062;-71
2021/09/11 01:30:18;;;;;;;3.10;0.80;;;;;;;;;;5049029;28;20037;-71
2021/09/11 01:32:46;;;;;;;2.67;1.23;;;;;;;;;;5033951;28;20115;-71
2021/09/11 01:35:14;;;;;;;1.88;1.00;;;;;;;;;;5033588;28;20109;-71
2021/09/11 01:37:41;;;;;;;3.80;1.10;;;;;;;;;;5033435;28;20050;-71
2021/09/11 01:40:09;;;;;;;3.55;1.05;;;;;;;;;;5035569;28;20021;-70
2021/09/11 01:42:37;;;;;;;2.45;0.90;;;;;;;;;;5040861;28;20044;-71
2021/09/11 01:45:10;;;;;;;2.13;1.00;;;;;;;;;;5034843;28;20064;-70
2021/09/11 01:47:38;;;;;;;4.38;0.98;;;;;;;;;;5036515;28;20104;-69
2021/09/11 01:50:05;;;;;;;3.22;1.08;;;;;;;;;;5039939;28;20540;-70
2021/09/11 01:52:33;;;;;;;3.75;1.38;;;;;;;;;;5033995;28;20045;-69
2021/09/11 01:55:00;;;;;;;2.63;1.67;;;;;;;;;;5034506;28;20045;-70
2021/09/11 01:57:27;;;;;;;4.28;1.08;;;;;;;;;;5034874;28;20028;-72
2021/09/11 01:59:54;;;;;;;2.70;1.10;;;;;;;;;;5040839;28;20115;-70
2021/09/11 02:02:21;;;;;;;2.75;0.77;;;;;;;;;;5033465;28;20319;-70
2021/09/11 02:04:48;;;;;;;2.28;0.90;;;;;;;;;;5039780;28;20442;-70
2021/09/11 02:07:16;;;;;;;3.30;0.93;;;;;;;;;;5035965;28;20087;-71
2021/09/11 02:09:43;;;;;;;1.70;0.77;;;;;;;;;;5040855;28;20581;-72
2021/09/11 02:12:10;;;;;;;3.80;0.98;;;;;;;;;;5039525;28;20086;-72
2021/09/11 02:14:37;;;;;;;4.82;0.70;;;;;;;;;;5035304;28;20051;-71
2021/09/11 02:17:04;;;;;;;1.85;1.25;;;;;;;;;;5033616;28;20090;-71
2021/09/11 02:19:32;;;;;;;2.30;0.98;;;;;;;;;;5031826;28;20026;-71
2021/09/11 02:22:00;;;;;;;1.83;0.98;;;;;;;;;;5034244;28;20041;-66
2021/09/11 02:24:27;;;;;;;3.53;1.00;;;;;;;;;;5033217;28;20017;-67
2021/09/11 02:26:54;;;;;;;3.13;0.95;;;;;;;;;;5041970;28;20021;-67
2021/09/11 02:29:21;;;;;;;2.25;0.50;;;;;;;;;;5033060;28;20032;-68
2021/09/11 02:31:48;;;;;;;1.90;0.68;;;;;;;;;;5033973;28;20437;-68
2021/09/11 02:34:15;;;;;;;3.00;1.00;;;;;;;;;;5033508;28;20363;-68
2021/09/11 02:36:43;;;;;;;2.95;0.80;;;;;;;;;;5036235;28;20655;-68
2021/09/11 02:39:10;;;;;;;5.22;1.02;;;;;;;;;;5042989;28;20462;-68
2021/09/11 02:41:37;;;;;;;2.28;0.90;;;;;;;;;;5037806;28;20032;-69
2021/09/11 02:44:04;;;;;;;2.25;0.70;;;;;;;;;;5036152;28;20508;-69
2021/09/11 02:46:32;;;;;;;1.50;0.52;;;;;;;;;;5032090;28;20064;-68
2021/09/11 02:49:00;;;;;;;1.55;0.60;;;;;;;;;;5041405;28;20098;-69
2021/09/11 02:51:27;;;;;;;1.60;1.00;;;;;;;;;;5042713;28;20112;-68
2021/09/11 02:53:54;;;;;;;4.78;0.63;;;;;;;;;;5031307;28;20030;-69
2021/09/11 02:56:21;;;;;;;2.88;1.00;;;;;;;;;;5038545;28;20586;-69
2021/09/11 02:58:49;;;;;;;2.60;0.63;;;;;;;;;;5039155;28;20013;-69
2021/09/11 03:01:16;;;;;;;2.25;0.70;;;;;;;;;;5034145;28;20029;-69
2021/09/11 03:03:43;;;;;;;1.08;0.60;;;;;;;;;;5033467;28;20091;-69
2021/09/11 03:06:10;;;;;;;2.03;0.68;;;;;;;;;;5029583;28;20064;-70
2021/09/11 03:08:37;;;;;;;4.32;0.60;;;;;;;;;;5039780;28;20028;-70
2021/09/11 03:11:04;;;;;;;4.85;0.75;;;;;;;;;;5031478;28;20083;-70
2021/09/11 03:13:31;;;;;;;1.85;0.77;;;;;;;;;;5037308;28;20079;-70
2021/09/11 03:15:59;;;;;;;1.55;0.70;;;;;;;;;;5031986;28;20038;-69
2021/09/11 03:18:26;;;;;;;2.75;0.90;;;;;;;;;;5036045;28;20064;-70
2021/09/11 03:20:54;;;;;;;1.75;0.73;;;;;;;;;;5039058;28;20487;-69
2021/09/11 03:23:21;;;;;;;1.20;0.57;;;;;;;;;;5038753;28;20033;-70
2021/09/11 03:25:48;;;;;;;1.35;0.90;;;;;;;;;;5039299;28;20351;-69
2021/09/11 03:28:15;;;;;;;1.35;0.80;;;;;;;;;;5040947;28;20389;-70
2021/09/11 03:30:42;;;;;;;1.42;0.70;;;;;;;;;;5035338;28;20663;-69
2021/09/11 03:33:09;;;;;;;2.10;0.57;;;;;;;;;;5031094;28;20053;-69
2021/09/11 03:35:37;;;;;;;2.78;0.50;;;;;;;;;;5036050;28;20560;-71
2021/09/11 03:38:04;;;;;;;2.78;0.60;;;;;;;;;;5032687;28;20048;-69
2021/09/11 03:40:31;;;;;;;4.10;0.60;;;;;;;;;;5031708;28;20024;-70
2021/09/11 03:42:58;;;;;;;2.10;0.80;;;;;;;;;;5038008;28;20040;-70
2021/09/11 03:45:25;;;;;;;0.90;0.60;;;;;;;;;;5039710;28;20100;-68
2021/09/11 03:47:52;;;;;;;1.92;0.60;;;;;;;;;;5042249;28;20025;-67
2021/09/11 03:50:19;;;;;;;0.88;0.60;;;;;;;;;;5047178;28;20108;-66
2021/09/11 03:52:46;;;;;;;1.15;0.50;;;;;;;;;;5046331;28;20501;-67
2021/09/11 03:55:14;;;;;;;3.72;0.77;;;;;;;;;;5057359;28;20049;-66
2021/09/11 03:57:41;;;;;;;1.70;0.63;;;;;;;;;;5041956;28;20045;-72
2021/09/11 04:00:08;;;;;;;2.97;0.70;;;;;;;;;;5039792;28;20018;-73
2021/09/11 04:02:35;;;;;;;3.22;0.90;;;;;;;;;;5035909;28;20500;-73
2021/09/11 04:05:03;;;;;;;1.15;0.60;;;;;;;;;;5032043;28;20025;-72
2021/09/11 04:07:30;;;;;;;0.73;0.50;;;;;;;;;;5035584;28;20032;-64
2021/09/11 04:09:57;;;;;;;2.42;0.47;;;;;;;;;;5037126;28;20260;-66
2021/09/11 04:12:24;;;;;;;1.05;0.55;;;;;;;;;;5039557;28;20041;-63
2021/09/11 04:14:51;;;;;;;1.40;0.52;;;;;;;;;;5046237;28;20025;-63
2021/09/11 04:17:18;;;;;;;1.48;0.60;;;;;;;;;;5041388;28;20508;-63
2021/09/11 04:19:45;;;;;;;1.55;0.90;;;;;;;;;;5048663;28;20021;-65
2021/09/11 04:22:13;;;;;;;2.97;0.50;;;;;;;;;;5036749;28;20029;-72
2021/09/11 04:24:40;;;;;;;1.92;0.75;;;;;;;;;;5034385;28;20025;-71
2021/09/11 04:27:07;;;;;;;2.20;0.70;;;;;;;;;;5044453;28;20026;-72
2021/09/11 04:29:34;;;;;;;2.60;0.70;;;;;;;;;;5031694;28;20027;-71
2021/09/11 04:32:01;;;;;;;1.88;0.68;;;;;;;;;;5041581;28;20555;-72
2021/09/11 04:34:28;;;;;;;3.22;0.80;;;;;;;;;;5038146;28;20053;-73
2021/09/11 04:36:55;;;;;;;2.42;0.93;;;;;;;;;;5047119;28;20104;-72
2021/09/11 04:39:22;;;;;;;1.70;0.68;;;;;;;;;;5043357;28;20049;-72
2021/09/11 04:41:50;;;;;;;3.08;0.82;;;;;;;;;;5044630;28;20359;-72
2021/09/11 04:44:17;;;;;;;1.58;0.95;;;;;;;;;;5043573;28;20025;-72
2021/09/11 04:46:44;;;;;;;1.33;0.60;;;;;;;;;;5036033;28;20497;-71
2021/09/11 04:49:11;;;;;;;2.25;0.68;;;;;;;;;;5033969;28;20042;-71
2021/09/11 04:51:38;;;;;;;1.35;0.80;;;;;;;;;;5035226;28;20021;-70
2021/09/11 04:54:06;;;;;;;1.90;0.40;;;;;;;;;;5041067;28;20070;-71
2021/09/11 04:56:33;;;;;;;0.60;0.60;;;;;;;;;;5039204;28;20067;-70
2021/09/11 04:59:00;;;;;;;2.67;0.63;;;;;;;;;;5034003;28;20268;-72
2021/09/11 05:01:30;;;;;;;2.70;0.38;;;;;;;;;;5037147;28;20022;-70
2021/09/11 05:03:57;;;;;;;2.65;0.80;;;;;;;;;;5036102;28;20029;-71
2021/09/11 05:06:24;;;;;;;1.00;0.80;;;;;;;;;;5040901;28;20021;-71
2021/09/11 05:08:51;;;;;;;0.60;0.47;;;;;;;;;;5033409;28;20040;-71
2021/09/11 05:11:21;;;;;;;1.92;0.50;;;;;;;;;;5036473;28;20092;-72
2021/09/11 05:13:48;;;;;;;1.25;0.63;;;;;;;;;;5035803;28;20170;-71
2021/09/11 05:16:15;;;;;;;4.22;0.60;;;;;;;;;;5036653;28;20013;-70
2021/09/11 05:18:42;;;;;;;2.88;0.70;;;;;;;;;;5035786;28;20029;-70
2021/09/11 05:21:09;;;;;;;1.80;0.90;;;;;;;;;;5038243;28;20587;-69
2021/09/11 05:23:37;;;;;;;2.88;0.88;;;;;;;;;;5034361;28;20030;-70
2021/09/11 05:26:05;;;;;;;3.47;1.05;;;;;;;;;;5043250;28;20373;-70
2021/09/11 05:28:32;;;;;;;2.10;1.10;;;;;;;;;;5047067;28;20025;-71
2021/09/11 05:30:59;;;;;;;5.15;0.90;;;;;;;;;;5040285;28;20033;-71
2021/09/11 05:33:26;;;;;;;8.05;2.65;;;;;;;;;;5042236;28;20025;-70
2021/09/11 05:35:54;;;;;;;1.73;1.13;;;;;;;;;;5036281;28;20033;-70
2021/09/11 05:38:21;;;;;;;8.10;2.30;;;;;;;;;;5033278;28;20128;-69
2021/09/11 05:40:48;;;;;;;1.95;0.90;;;;;;;;;;5033843;28;20031;-69
2021/09/11 05:43:15;;;;;;;1.60;0.60;;;;;;;;;;5053733;28;20029;-71
2021/09/11 05:45:42;;;;;;;1.75;0.70;;;;;;;;;;5052600;28;20083;-70
2021/09/11 05:48:10;;;;;;;0.88;0.40;;;;;;;;;;5034062;28;20049;-70
2021/09/11 05:50:37;;;;;;;2.13;0.90;;;;;;;;;;5033611;28;20022;-70
2021/09/11 05:53:04;;;;;;;1.48;0.80;;;;;;;;;;5033726;28;20091;-70
2021/09/11 05:55:31;;;;;;;1.42;0.90;;;;;;;;;;5032076;28;20091;-70
2021/09/11 05:57:58;;;;;;;0.85;0.70;;;;;;;;;;5040731;28;20021;-70
2021/09/11 06:00:25;;;;;;;6.68;1.83;;;;;;;;;;5050568;28;20036;-71
2021/09/11 06:02:52;;;;;;;4.00;2.03;;;;;;;;;;5047274;28;20032;-69
2021/09/11 06:05:19;;;;;;;1.15;0.88;;;;;;;;;;5036072;28;20477;-71
2021/09/11 06:07:49;;;;;;;1.15;0.63;;;;;;;;;;5034233;28;20022;-69
2021/09/11 06:10:16;;;;;;;2.80;0.98;;;;;;;;;;5036422;28;20373;-70
2021/09/11 06:12:44;;;;;;;1.48;0.88;;;;;;;;;;5033600;28;20068;-70
2021/09/11 06:15:12;;;;;;;1.25;0.77;;;;;;;;;;5035565;28;20386;-70
2021/09/11 06:17:39;;;;;;;1.35;0.80;;;;;;;;;;5033368;28;20071;-71
2021/09/11 06:20:07;;;;;;;5.47;1.38;;;;;;;;;;5038339;28;20478;-70
2021/09/11 06:22:34;;;;;;;2.25;0.70;;;;;;;;;;5035933;28;20033;-70
2021/09/11 06:25:01;;;;;;;4.45;0.93;;;;;;;;;;5033484;28;20077;-72
2021/09/11 06:27:28;;;;;;;1.80;0.65;;;;;;;;;;5042890;28;20048;-69
2021/09/11 06:29:55;;;;;;;0.70;0.57;;;;;;;;;;5034222;28;20182;-69
2021/09/11 06:32:22;;;;;;;1.83;0.60;;;;;;;;;;5044532;28;20094;-69
2021/09/11 06:34:49;;;;;;;4.43;0.90;;;;;;;;;;5051922;28;20451;-71
2021/09/11 06:37:17;;;;;;;2.00;1.05;;;;;;;;;;5038534;28;20041;-70
2021/09/11 06:39:44;;;;;;;1.30;0.75;;;;;;;;;;5033169;28;20024;-70
2021/09/11 06:42:13;;;;;;;1.30;0.73;;;;;;;;;;5044291;28;20033;-71
2021/09/11 06:44:40;;;;;;;2.38;1.00;;;;;;;;;;5034361;28;20378;-70
2021/09/11 06:47:07;;;;;;;3.30;1.35;;;;;;;;;;5042958;28;20477;-69
2021/09/11 06:49:34;;;;;;;2.00;1.45;;;;;;;;;;5031194;28;20064;-71
2021/09/11 06:52:01;;;;;;;2.58;1.67;;;;;;;;;;5031649;28;20133;-71
2021/09/11 06:54:28;;;;;;;3.92;1.50;;;;;;;;;;5047911;28;20043;-70
2021/09/11 06:56:55;;;;;;;2.10;1.17;;;;;;;;;;5041503;28;20036;-70
2021/09/11 06:59:22;;;;;;;1.80;1.20;;;;;;;;;;5032899;28;20075;-70
2021/09/11 07:01:50;;;;;;;2.85;1.40;;;;;;;;;;5034588;28;20032;-70
2021/09/11 07:04:17;;;;;;;1.65;1.00;;;;;;;;;;5033155;28;20466;-70
2021/09/11 07:06:44;;;;;;;3.28;1.63;;;;;;;;;;5032266;28;20083;-70
2021/09/11 07:09:11;;;;;;;3.72;1.08;;;;;;;;;;5032036;28;20029;-70
2021/09/11 07:11:38;;;;;;;2.97;0.85;;;;;;;;;;5030854;28;20048;-70
2021/09/11 07:14:05;;;;;;;2.08;0.88;;;;;;;;;;5032076;28;20033;-71
2021/09/11 07:16:32;;;;;;;2.47;0.88;;;;;;;;;;5041117;28;20104;-71
2021/09/11 07:18:59;;;;;;;1.17;0.70;;;;;;;;;;5032805;28;20522;-69
2021/09/11 07:21:27;;;;;;;1.50;0.88;;;;;;;;;;5036450;28;20021;-70
2021/09/11 07:23:54;;;;;;;2.35;0.90;;;;;;;;;;5040366;28;20115;-69
2021/09/11 07:26:21;;;;;;;3.10;0.88;;;;;;;;;;5034398;28;20083;-70
2021/09/11 07:28:49;;;;;;;0.90;0.70;;;;;;;;;;5035410;28;20048;-70
2021/09/11 07:31:17;;;;;;;4.45;0.80;;;;;;;;;;5041472;28;20032;-70
2021/09/11 07:33:46;;;;;;;1.70;0.85;;;;;;;;;;5044256;28;20029;-70
2021/09/11 07:36:14;;;;;;;4.03;1.30;;;;;;;;;;5034370;28;20470;-70
2021/09/11 07:38:41;;;;;;;1.52;0.90;;;;;;;;;;5037428;28;20075;-70
2021/09/11 07:41:08;;;;;;;1.73;1.13;;;;;;;;;;5037308;28;20022;-70
2021/09/11 07:43:35;;;;;;;7.18;1.80;;;;;;;;;;5032527;28;20038;-70
2021/09/11 07:46:02;;;;;;;17.60;4.38;;;;;;;;;;5034049;28;20053;-70
2021/09/11 07:48:29;;;;;;;10.88;3.00;;;;;;;;;;5036356;28;20026;-69
2021/09/11 07:50:57;;;;;;;12.13;3.30;;;;;;;;;;5037476;28;20043;-69
2021/09/11 07:53:24;;;;;;;6.03;3.58;;;;;;;;;;5037690;28;20073;-69
2021/09/11 07:55:51;;;;;;;12.60;3.30;;;;;;;;;;5030290;28;20029;-68
2021/09/11 07:58:18;;;;;;;11.50;2.83;;;;;;;;;;5036673;28;20040;-69
2021/09/11 08:00:45;;;;;;;4.78;1.70;;;;;;;;;;5029166;28;20034;-69
2021/09/11 08:03:12;;;;;;;2.35;1.27;;;;;;;;;;5030403;28;20051;-69
2021/09/11 08:05:39;;;;;;;2.53;1.60;;;;;;;;;;5042593;28;20009;-69
2021/09/11 08:08:07;;;;;;;4.18;1.63;;;;;;;;;;5037670;28;20095;-69
2021/09/11 08:10:34;;;;;;;3.47;1.10;;;;;;;;;;5030557;28;20116;-69
2021/09/11 08:13:01;;;;;;;2.45;0.95;;;;;;;;;;5037594;28;20072;-70
2021/09/11 08:15:28;;;;;;;3.13;1.10;;;;;;;;;;5039808;28;20104;-69
2021/09/11 08:17:55;;;;;;;3.38;1.33;;;;;;;;;;5046274;28;20564;-69
2021/09/11 08:20:23;;;;;;;4.95;1.40;;;;;;;;;;5036450;28;20083;-69
2021/09/11 08:22:50;;;;;;;4.63;1.92;;;;;;;;;;5040089;28;20037;-69
2021/09/11 08:25:17;;;;;;;2.97;2.00;;;;;;;;;;5048941;28;20051;-68
2021/09/11 08:27:44;;;;;;;4.22;2.70;;;;;;;;;;5048638;28;20030;-69
2021/09/11 08:30:11;;;;;;;6.18;2.28;;;;;;;;;;5035885;28;20425;-70
2021/09/11 08:32:39;;;;;;;3.97;3.03;;;;;;;;;;5034769;28;20025;-70
2021/09/11 08:35:08;;;;;;;12.95;11.75;;;;;;;;;;5047270;28;20013;-69
2021/09/11 08:37:35;;;;;;;9.05;5.57;;;;;;;;;;5046809;28;20379;-69
2021/09/11 08:40:02;;;;;;;5.70;2.60;;;;;;;;;;5037712;28;20029;-69
2021/09/11 08:42:30;;;;;;;2.45;1.60;;;;;;;;;;5035649;28;20033;-70
2021/09/11 08:44:57;;;;;;;1.85;1.33;;;;;;;;;;5037877;28;20025;-69
2021/09/11 08:47:24;;;;;;;3.22;1.50;;;;;;;;;;5040261;28;20072;-70
2021/09/11 08:49:52;;;;;;;2.40;1.95;;;;;;;;;;5034651;28;20760;-71
2021/09/11 08:52:20;;;;;;;5.15;2.10;;;;;;;;;;5038621;28;20029;-70
2021/09/11 08:54:47;;;;;;;4.50;1.30;;;;;;;;;;5043478;28;20021;-70
2021/09/11 08:57:19;;;;;;;2.53;1.52;;;;;;;;;;5043837;28;20397;-69
2021/09/11 08:59:46;;;;;;;5.30;1.65;;;;;;;;;;5043761;28;20024;-69
2021/09/11 09:02:13;;;;;;;3.20;2.05;;;;;;;;;;5034403;28;20037;-70
2021/09/11 09:04:51;;;;;;;4.70;1.80;;;;;;;;;;5039518;28;20417;-70
2021/09/11 09:07:34;;;;;;;2.70;1.50;;;;;;;;;;5044137;28;20032;-70
2021/09/11 09:10:12;;;;;;;4.53;2.22;;;;;;;;;;5054642;28;20478;-70
2021/09/11 09:12:41;;;;;;;2.97;1.55;;;;;;;;;;5045391;28;20033;-69
2021/09/11 09:15:10;;;;;;;4.68;1.75;;;;;;;;;;5037960;28;20099;-69
2021/09/11 09:17:47;;;;;;;4.13;2.00;;;;;;;;;;5036453;28;20524;-69
2021/09/11 09:20:24;;;;;;;4.57;2.80;;;;;;;;;;5043731;28;20041;-70
2021/09/11 09:23:12;;;;;;;8.18;3.88;;;;;;;;;;5043554;28;20036;-69
2021/09/11 09:25:39;;;;;;;4.28;2.58;;;;;;;;;;5039784;28;20028;-69
2021/09/11 09:28:08;;;;;;;5.35;2.50;;;;;;;;;;5045373;28;20040;-70
2021/09/11 09:30:48;;;;;;;3.97;2.58;;;;;;;;;;5039671;28;20025;-71
2021/09/11 09:33:26;;;;;;;4.38;3.17;;;;;;;;;;5042284;28;20108;-70
2021/09/11 09:35:54;;;;;;;3.55;2.75;;;;;;;;;;5042374;28;20051;-70
2021/09/11 09:38:21;;;;;;;3.63;3.00;;;;;;;;;;5049402;28;20052;-70
2021/09/11 09:40:49;;;;;;;6.55;3.35;;;;;;;;;;5037153;28;20044;-70
2021/09/11 09:43:29;;;;;;;3.67;2.58;;;;;;;;;;5041160;28;20474;-70
2021/09/11 09:46:03;;;;;;;5.07;3.08;;;;;;;;;;5035296;28;20544;-70
2021/09/11 09:48:33;;;;;;;8.35;3.33;;;;;;;;;;5044356;28;20021;-70
2021/09/11 09:51:04;;;;;;;8.65;4.30;;;;;;;;;;5040274;28;20087;-70
2021/09/11 09:53:31;;;;;;;5.05;3.47;;;;;;;;;;5043119;28;20123;-70
2021/09/11 09:55:59;;;;;;;6.15;4.22;;;;;;;;;;5038694;28;20017;-70
2021/09/11 09:58:26;;;;;;;6.05;2.70;;;;;;;;;;5045762;28;20029;-69
2021/09/11 10:00:54;;;;;;;4.90;2.53;;;;;;;;;;5036459;28;20394;-70
2021/09/11 10:03:21;;;;;;;6.13;2.00;;;;;;;;;;5049888;28;20029;-70
2021/09/11 10:05:50;;;;;;;4.07;2.75;;;;;;;;;;5042429;28;20028;-71
2021/09/11 10:08:18;;;;;;;10.30;3.17;;;;;;;;;;5033959;28;20037;-71
2021/09/11 10:10:49;;;;;;;5.35;3.22;;;;;;;;;;5046686;28;20051;-69
2021/09/11 10:13:17;;;;;;;5.50;4.13;;;;;;;;;;5049408;28;20102;-69
2021/09/11 10:15:53;;;;;;;6.53;4.13;;;;;;;;;;5033664;28;20028;-69
2021/09/11 10:18:32;;;;;;;5.95;4.82;;;;;;;;;;5046408;28;20017;-70
2021/09/11 10:21:12;;;;;;;13.88;10.18;;;;;;;;;;5034318;28;20021;-70
2021/09/11 10:23:40;;;;;;;15.38;10.88;;;;;;;;;;5033605;28;20053;-70
2021/09/11 10:26:07;;;;;;;17.02;10.70;;;;;;;;;;5037983;28;20028;-70
2021/09/11 10:28:34;;;;;;;12.48;7.45;;;;;;;;;;5039373;28;20124;-71
2021/09/11 10:31:08;;;;;;;6.82;3.50;;;;;;;;;;5042164;28;20026;-70
2021/09/11 10:33:53;;;;;;;5.35;3.15;;;;;;;;;;5050204;28;20082;-70
2021/09/11 10:36:43;;;;;;;4.72;3.10;;;;;;;;;;5038115;28;20104;-71
2021/09/11 10:39:11;;;;;;;4.72;3.20;;;;;;;;;;5040203;28;20159;-70
2021/09/11 10:41:38;;;;;;;6.78;3.80;;;;;;;;;;5043063;28;20024;-70
2021/09/11 10:44:06;;;;;;;10.35;4.93;;;;;;;;;;5033489;28;20364;-71
2021/09/11 10:46:52;;;;;;;8.93;4.05;;;;;;;;;;5031732;28;20617;-71
2021/09/11 10:49:39;;;;;;;9.18;5.13;;;;;;;;;;5033523;28;20108;-70
2021/09/11 10:52:10;;;;;;;4.78;3.00;;;;;;;;;;5034294;28;20044;-70
2021/09/11 10:54:41;;;;;;;4.55;3.00;;;;;;;;;;5035421;28;20382;-70
2021/09/11 10:57:31;;;;;;;5.75;2.78;;;;;;;;;;5039197;28;20029;-71
2021/09/11 11:00:17;;;;;;;4.68;2.72;;;;;;;;;;5034297;28;20064;-69
2021/09/11 11:02:46;;;;;;;5.85;2.42;;;;;;;;;;5036485;28;20364;-70
2021/09/11 11:05:17;;;;;;;8.05;4.57;;;;;;;;;;5048752;28;20028;-70
2021/09/11 11:07:47;;;;;;;7.80;4.85;;;;;;;;;;5044666;28;20017;-71
2021/09/11 11:10:17;;;;;;;6.72;3.67;;;;;;;;;;5033880;28;20538;-70
2021/09/11 11:12:49;;;;;;;5.25;3.33;;;;;;;;;;5043629;28;20045;-70
2021/09/11 11:15:18;;;;;;;4.57;2.83;;;;;;;;;;5038732;28;20046;-71
2021/09/11 11:17:46;;;;;;;5.57;3.10;;;;;;;;;;5035105;28;20039;-70
2021/09/11 11:20:14;;;;;;;3.72;2.88;;;;;;;;;;5037945;28;20025;-71
2021/09/11 11:22:42;;;;;;;3.97;2.50;;;;;;;;;;5038003;28;20025;-71
2021/09/11 11:25:15;;;;;;;4.05;2.50;;;;;;;;;;5042937;28;20028;-70
2021/09/11 11:27:43;;;;;;;4.30;2.30;;;;;;;;;;5036487;28;20028;-71
2021/09/11 11:30:11;;;;;;;3.75;2.67;;;;;;;;;;5037253;28;20075;-70
2021/09/11 11:32:38;;;;;;;4.85;3.90;;;;;;;;;;5040991;28;20070;-70
2021/09/11 11:35:06;;;;;;;5.45;3.70;;;;;;;;;;5041488;28;20083;-70
2021/09/11 11:37:40;;;;;;;6.68;3.88;;;;;;;;;;5040038;28;20229;-71
2021/09/11 11:40:09;;;;;;;5.97;3.92;;;;;;;;;;5038885;28;20474;-71
2021/09/11 11:42:37;;;;;;;6.78;4.22;;;;;;;;;;5032331;28;20045;-71
2021/09/11 11:45:06;;;;;;;6.35;3.95;;;;;;;;;;5050473;28;20359;-71
2021/09/11 11:47:51;;;;;;;6.50;3.22;;;;;;;;;;5034373;28;20028;-71
2021/09/11 11:50:20;;;;;;;3.17;2.10;;;;;;;;;;5050794;28;20021;-71
2021/09/11 11:52:52;;;;;;;3.33;2.55;;;;;;;;;;5046993;28;20524;-71
2021/09/11 11:55:21;;;;;;;3.70;2.33;;;;;;;;;;5034596;28;20029;-70
2021/09/11 11:57:48;;;;;;;3.22;2.20;;;;;;;;;;5035462;28;20060;-71
2021/09/11 12:00:17;;;;;;;3.42;2.08;;;;;;;;;;5043952;28;20425;-71
2021/09/11 12:02:48;;;;;;;3.63;2.13;;;;;;;;;;5041444;28;20026;-71
2021/09/11 12:05:15;;;;;;;4.63;2.22;;;;;;;;;;5043351;28;20077;-70
2021/09/11 12:07:43;;;;;;;2.88;2.10;;;;;;;;;;5046715;28;20013;-70
2021/09/11 12:10:16;;;;;;;2.85;1.50;;;;;;;;;;5044999;28;20033;-71
2021/09/11 12:12:51;;;;;;;2.75;2.28;;;;;;;;;;5035002;28;20033;-70
2021/09/11 12:15:19;;;;;;;3.17;1.65;;;;;;;;;;5040807;28;20506;-70
2021/09/11 12:17:56;;;;;;;3.33;1.70;;;;;;;;;;5049138;28;20112;-70
2021/09/11 12:20:24;;;;;;;1.70;1.20;;;;;;;;;;5036412;28;20520;-70
2021/09/11 12:23:04;;;;;;;4.57;1.45;;;;;;;;;;5035601;28;20090;-70
2021/09/11 12:25:50;;;;;;;2.42;1.50;;;;;;;;;;5034968;28;20022;-70
2021/09/11 12:28:38;;;;;;;2.05;1.45;;;;;;;;;;5036547;28;20017;-69
2021/09/11 12:31:06;;;;;;;3.60;1.63;;;;;;;;;;5040970;28;20437;-71
2021/09/11 12:33:43;;;;;;;2.97;1.40;;;;;;;;;;5035022;28;21611;-71
2021/09/11 12:36:28;;;;;;;2.60;1.63;;;;;;;;;;5044639;28;20035;-70
2021/09/11 12:38:56;;;;;;;2.78;1.52;;;;;;;;;;5034507;28;20505;-70
2021/09/11 12:41:23;;;;;;;4.10;1.50;;;;;;;;;;5038234;28;20017;-70
2021/09/11 12:43:51;;;;;;;3.53;1.30;;;;;;;;;;5038335;28;20402;-69
2021/09/11 12:46:28;;;;;;;4.13;1.65;;;;;;;;;;5042511;28;20040;-70
2021/09/11 12:48:55;;;;;;;2.80;1.83;;;;;;;;;;5034995;28;20437;-70
2021/09/11 12:51:22;;;;;;;4.05;2.13;;;;;;;;;;5034766;28;20071;-70
2021/09/11 12:53:49;;;;;;;2.65;1.65;;;;;;;;;;5033816;28;20390;-70
2021/09/11 12:56:25;;;;;;;3.55;2.15;;;;;;;;;;5039046;28;20075;-70
2021/09/11 12:58:54;;;;;;;4.53;2.17;;;;;;;;;;5053909;28;20075;-70
2021/09/11 13:01:21;;;;;;;2.60;1.73;;;;;;;;;;5038913;28;20104;-70
2021/09/11 13:03:48;;;;;;;2.67;1.60;;;;;;;;;;5037204;28;20474;-70
2021/09/11 13:06:16;;;;;;;3.40;1.30;;;;;;;;;;5037465;28;20017;-69
2021/09/11 13:08:43;;;;;;;3.30;1.48;;;;;;;;;;5039974;28;20029;-70
2021/09/11 13:11:14;;;;;;;3.05;1.23;;;;;;;;;;5038909;28;20115;-69
2021/09/11 13:13:42;;;;;;;1.92;1.02;;;;;;;;;;5034495;28;20033;-70
2021/09/11 13:16:10;;;;;;;2.53;1.10;;;;;;;;;;5038975;28;20175;-70
2021/09/11 13:18:38;;;;;;;2.13;0.90;;;;;;;;;;5051044;28;20030;-69
2021/09/11 13:21:12;;;;;;;2.90;1.25;;;;;;;;;;5036856;28;20369;-70
2021/09/11 13:23:41;;;;;;;2.03;1.25;;;;;;;;;;5032680;28;20017;-70
2021/09/11 13:26:09;;;;;;;1.95;0.82;;;;;;;;;;5035540;28;20033;-70
2021/09/11 13:28:37;;;;;;;4.68;1.65;;;;;;;;;;5052728;28;20096;-70
2021/09/11 13:31:05;;;;;;;2.78;1.00;;;;;;;;;;5047779;28;20371;-70
2021/09/11 13:33:32;;;;;;;2.42;1.10;;;;;;;;;;5034135;28;20029;-70
2021/09/11 13:35:59;;;;;;;1.90;1.15;;;;;;;;;;5033537;28;20150;-70
2021/09/11 13:38:27;;;;;;;1.52;1.00;;;;;;;;;;5033373;28;20042;-69
2021/09/11 13:40:55;;;;;;;2.65;1.33;;;;;;;;;;5033364;28;20037;-69
2021/09/11 13:43:22;;;;;;;4.07;1.38;;;;;;;;;;5039959;28;20029;-69
2021/09/11 13:45:50;;;;;;;2.50;1.60;;;;;;;;;;5038300;28;20025;-70
2021/09/11 13:48:17;;;;;;;2.05;1.33;;;;;;;;;;5039262;28;20033;-70
2021/09/11 13:50:45;;;;;;;2.80;2.10;;;;;;;;;;5033200;28;20049;-70
2021/09/11 13:53:12;;;;;;;4.28;1.80;;;;;;;;;;5047319;28;20129;-70
2021/09/11 13:55:39;;;;;;;2.13;1.90;;;;;;;;;;5041149;28;20417;-70
2021/09/11 13:58:06;;;;;;;2.85;1.92;;;;;;;;;;5044061;28;20100;-70
2021/09/11 14:00:33;;;;;;;3.88;2.10;;;;;;;;;;5032364;28;20079;-70
2021/09/11 14:03:01;;;;;;;2.63;2.05;;;;;;;;;;5035161;28;20116;-70
2021/09/11 14:05:29;;;;;;;3.30;2.20;;;;;;;;;;5042932;28;20031;-70
2021/09/11 14:07:56;;;;;;;2.83;2.10;;;;;;;;;;5038824;28;20064;-70
2021/09/11 14:10:23;;;;;;;3.95;1.95;;;;;;;;;;5034893;28;20026;-71
2021/09/11 14:12:50;;;;;;;3.33;2.60;;;;;;;;;;5050100;28;20040;-71
2021/09/11 14:15:19;;;;;;;3.90;2.60;;;;;;;;;;5042992;28;20167;-71
2021/09/11 14:17:47;;;;;;;3.92;2.67;;;;;;;;;;5034514;28;20025;-70
2021/09/11 14:20:15;;;;;;;4.95;2.92;;;;;;;;;;5031987;28;20482;-71
2021/09/11 14:22:43;;;;;;;6.72;3.50;;;;;;;;;;5033499;28;20155;-71
2021/09/11 14:25:11;;;;;;;6.20;3.33;;;;;;;;;;5035775;28;20028;-71
2021/09/11 14:27:39;;;;;;;6.47;3.50;;;;;;;;;;5034206;28;20409;-71
2021/09/11 14:30:08;;;;;;;4.90;3.60;;;;;;;;;;5035126;28;20034;-71
2021/09/11 14:32:38;;;;;;;4.95;3.55;;;;;;;;;;5035290;28;20026;-71
2021/09/11 14:35:05;;;;;;;5.63;3.65;;;;;;;;;;5034439;28;20029;-71
2021/09/11 14:37:33;;;;;;;7.00;4.47;;;;;;;;;;5045783;28;20080;-71
2021/09/11 14:40:00;;;;;;;6.10;4.15;;;;;;;;;;5031837;28;20112;-71
2021/09/11 14:42:30;;;;;;;6.07;4.00;;;;;;;;;;5032011;28;20512;-71
2021/09/11 14:44:58;;;;;;;6.63;3.83;;;;;;;;;;5032236;28;20120;-71
2021/09/11 14:47:29;;;;;;;4.50;3.42;;;;;;;;;;5034511;28;20029;-71
2021/09/11 14:49:57;;;;;;;6.05;3.58;;;;;;;;;;5048974;28;20029;-71
2021/09/11 14:52:25;;;;;;;6.88;3.88;;;;;;;;;;5037986;28;20026;-71